createdAt,value
2022-08-16T00:02:36.558Z,97821.28
2022-08-16T00:05:17.541Z,97817.31
2022-08-16T00:07:56.513Z,97815.78
2022-08-16T00:10:31.533Z,97818.94
2022-08-16T00:13:00.285Z,97818.28
2022-08-16T00:15:51.482Z,97814.28
2022-08-16T00:18:22.099Z,97812.03
2022-08-16T00:21:01.530Z,97803.88
2022-08-16T00:23:34.546Z,97805.97
2022-08-16T00:26:36.074Z,97804.47
2022-08-16T00:29:06.550Z,97796.75
2022-08-16T00:32:00.024Z,97802.97
2022-08-16T00:34:43.229Z,97801.81
2022-08-16T00:37:20.320Z,97804.84
2022-08-16T00:39:57.502Z,97814.72
2022-08-16T00:42:32.563Z,97812.44
2022-08-16T00:45:01.264Z,97816.22
2022-08-16T00:47:39.703Z,97822.28
2022-08-16T00:50:15.542Z,97820.69
2022-08-16T00:52:45.821Z,97829.94
2022-08-16T00:55:25.531Z,97832.63
2022-08-16T00:58:12.898Z,97840.22
2022-08-16T01:00:43.240Z,97843.25
2022-08-16T01:03:17.699Z,97850.31
2022-08-16T01:06:32.517Z,97843.41
2022-08-16T01:09:06.430Z,97845.88
2022-08-16T01:11:54.028Z,97849.28
2022-08-16T01:14:30.251Z,97850.94
2022-08-16T01:17:04.528Z,97861.25
2022-08-16T01:19:38.108Z,97855.16
2022-08-16T01:22:47.914Z,97856.56
2022-08-16T01:25:23.511Z,97858.78
2022-08-16T01:28:08.686Z,97871.22
2022-08-16T01:30:40.166Z,97867.34
2022-08-16T01:33:24.496Z,97869.72
2022-08-16T01:36:09.331Z,97870.06
2022-08-16T01:38:48.849Z,97871.91
2022-08-16T01:41:29.682Z,97871.47
2022-08-16T01:44:01.047Z,97878.47
2022-08-16T01:46:43.509Z,97876.97
2022-08-16T01:49:23.531Z,97878.84
2022-08-16T01:52:28.016Z,97876.84
2022-08-16T01:55:03.513Z,97881.19
2022-08-16T01:57:31.718Z,97874.38
2022-08-16T02:00:05.551Z,97875.91
2022-08-16T02:02:45.483Z,97882.72
2022-08-16T02:05:39.505Z,97881.53
2022-08-16T02:08:32.694Z,97879.28
2022-08-16T02:11:06.520Z,97872.72
2022-08-16T02:13:41.949Z,97874.53
2022-08-16T02:16:18.334Z,97875.09
2022-08-16T02:18:52.501Z,97875.09
2022-08-16T02:21:31.593Z,97873.81
2022-08-16T02:24:30.743Z,97878.75
2022-08-16T02:26:58.536Z,97871.22
2022-08-16T02:29:31.991Z,97872.41
2022-08-16T02:32:04.030Z,97871.69
2022-08-16T02:34:56.537Z,97867.09
2022-08-16T02:37:23.311Z,97870.38
2022-08-16T02:39:56.934Z,97879.56
2022-08-16T02:42:24.014Z,97879.78
2022-08-16T02:44:57.500Z,97881.75
2022-08-16T02:47:25.764Z,97869.56
2022-08-16T02:50:55.529Z,97887.28
2022-08-16T02:52:46.580Z,97886.81
2022-08-16T02:55:41.125Z,97892.69
2022-08-16T02:58:15.485Z,97890.22
2022-08-16T03:00:45.343Z,97894.78
2022-08-16T03:03:18.506Z,97902.06
2022-08-16T03:06:36.418Z,97904.78
2022-08-16T03:08:53.245Z,97905.13
2022-08-16T03:11:27.534Z,97912.28
2022-08-16T03:14:02.616Z,97905.00
2022-08-16T03:16:42.224Z,97913.31
2022-08-16T03:19:47.076Z,97911.22
2022-08-16T03:22:27.749Z,97900.41
2022-08-16T03:24:57.278Z,97903.47
2022-08-16T03:27:32.371Z,97901.84
2022-08-16T03:30:15.239Z,97897.25
2022-08-16T03:32:45.014Z,97900.19
2022-08-16T03:35:20.509Z,97901.84
2022-08-16T03:38:01.474Z,97903.59
2022-08-16T03:40:36.508Z,97902.19
2022-08-16T03:43:20.281Z,97899.13
2022-08-16T03:45:54.507Z,97894.34
2022-08-16T03:48:31.613Z,97889.03
2022-08-16T03:51:14.496Z,97890.94
2022-08-16T03:53:42.118Z,97888.47
2022-08-16T03:56:20.788Z,97891.97
2022-08-16T03:58:55.488Z,97885.53
2022-08-16T04:01:23.344Z,97880.38
2022-08-16T04:03:57.531Z,97884.69
2022-08-16T04:06:37.565Z,97883.06
2022-08-16T04:09:12.397Z,97884.00
2022-08-16T04:11:45.508Z,97884.47
2022-08-16T04:14:33.088Z,97886.56
2022-08-16T04:17:07.570Z,97891.97
2022-08-16T04:19:35.501Z,97901.44
2022-08-16T04:22:08.909Z,97902.75
2022-08-16T04:24:36.365Z,97896.06
2022-08-16T04:27:11.504Z,97893.50
2022-08-16T04:29:44.575Z,97894.53
2022-08-16T04:32:19.824Z,97882.84
2022-08-16T04:34:47.671Z,97886.13
2022-08-16T04:37:21.502Z,97886.22
2022-08-16T04:39:57.012Z,97887.53
2022-08-16T04:42:26.535Z,97876.84
2022-08-16T04:45:04.600Z,97872.97
2022-08-16T04:47:33.221Z,97883.19
2022-08-16T04:50:15.508Z,97880.38
2022-08-16T04:52:45.494Z,97886.94
2022-08-16T04:55:31.926Z,97885.06
2022-08-16T04:58:44.106Z,97881.44
2022-08-16T05:00:59.485Z,97890.94
2022-08-16T05:03:26.547Z,97889.84
2022-08-16T05:06:09.276Z,97888.91
2022-08-16T05:08:49.499Z,97896.41
2022-08-16T05:11:32.183Z,97897.34
2022-08-16T05:14:08.464Z,97890.22
2022-08-16T05:16:35.721Z,97896.50
2022-08-16T05:19:11.659Z,97899.28
2022-08-16T05:21:39.511Z,97906.63
2022-08-16T05:24:13.494Z,97905.09
2022-08-16T05:26:49.571Z,97910.25
2022-08-16T05:29:24.817Z,97912.97
2022-08-16T05:31:58.483Z,97914.63
2022-08-16T05:34:25.144Z,97917.88
2022-08-16T05:36:59.494Z,97919.72
2022-08-16T05:39:27.364Z,97929.91
2022-08-16T05:42:01.494Z,97927.09
2022-08-16T05:44:34.469Z,97919.59
2022-08-16T05:47:01.631Z,97929.09
2022-08-16T05:49:39.295Z,97936.50
2022-08-16T05:52:10.613Z,97932.16
2022-08-16T05:55:01.181Z,97938.34
2022-08-16T05:57:34.375Z,97947.09
2022-08-16T06:00:09.255Z,97945.13
2022-08-16T06:02:36.840Z,97947.69
2022-08-16T06:05:10.874Z,97953.56
2022-08-16T06:07:44.577Z,97952.91
2022-08-16T06:10:33.175Z,97945.78
2022-08-16T06:13:00.139Z,97953.34
2022-08-16T06:15:33.477Z,97954.47
2022-08-16T06:18:01.839Z,97960.66
2022-08-16T06:20:36.981Z,97962.28
2022-08-16T06:23:24.062Z,97962.06
2022-08-16T06:25:57.484Z,97965.84
2022-08-16T06:28:36.667Z,97959.16
2022-08-16T06:31:11.943Z,97952.25
2022-08-16T06:33:42.106Z,97959.03
2022-08-16T06:36:16.461Z,97957.50
2022-08-16T06:38:55.767Z,97958.69
2022-08-16T06:41:39.609Z,97951.28
2022-08-16T06:44:06.898Z,97952.84
2022-08-16T06:46:54.476Z,97955.75
2022-08-16T06:49:21.066Z,97967.00
2022-08-16T06:51:54.527Z,97962.69
2022-08-16T06:54:31.324Z,97965.09
2022-08-16T06:57:05.460Z,97961.72
2022-08-16T06:59:52.453Z,97968.66
2022-08-16T07:02:33.994Z,97964.69
2022-08-16T07:05:20.455Z,97962.47
2022-08-16T07:08:00.480Z,97957.19
2022-08-16T07:10:28.067Z,97962.59
2022-08-16T07:13:03.930Z,97964.13
2022-08-16T07:15:35.269Z,97966.94
2022-08-16T07:18:08.475Z,97963.06
2022-08-16T07:20:48.028Z,97967.19
2022-08-16T07:23:21.484Z,97958.63
2022-08-16T07:26:25.500Z,97966.72
2022-08-16T07:28:52.304Z,97966.94
2022-08-16T07:31:37.852Z,97967.88
2022-08-16T07:34:05.040Z,97965.75
2022-08-16T07:36:45.114Z,97958.31
2022-08-16T07:39:17.954Z,97962.78
2022-08-16T07:41:51.452Z,97964.28
2022-08-16T07:44:19.628Z,97971.47
2022-08-16T07:46:56.314Z,97971.19
2022-08-16T07:49:32.400Z,97966.22
2022-08-16T07:52:18.671Z,97974.06
2022-08-16T07:54:53.614Z,97969.13
2022-08-16T07:57:26.477Z,97971.25
2022-08-16T07:59:59.466Z,97980.50
2022-08-16T08:02:27.419Z,97972.38
2022-08-16T08:05:03.458Z,97966.75
2022-08-16T08:07:36.829Z,97973.66
2022-08-16T08:10:12.617Z,97977.00
2022-08-16T08:12:59.347Z,97975.13
2022-08-16T08:15:34.558Z,97975.78
2022-08-16T08:18:29.328Z,97972.94
2022-08-16T08:20:59.220Z,97975.47
2022-08-16T08:23:35.451Z,97981.31
2022-08-16T08:26:17.755Z,97978.75
2022-08-16T08:28:51.456Z,97984.69
2022-08-16T08:31:25.482Z,97988.97
2022-08-16T08:33:57.140Z,97988.25
2022-08-16T08:36:34.253Z,97980.78
2022-08-16T08:39:12.993Z,97977.66
2022-08-16T08:41:49.353Z,97975.84
2022-08-16T08:44:28.563Z,97978.88
2022-08-16T08:47:01.676Z,97983.03
2022-08-16T08:49:46.740Z,97983.28
2022-08-16T08:52:34.479Z,97979.91
2022-08-16T08:55:19.450Z,97977.28
2022-08-16T08:57:47.275Z,97970.59
2022-08-16T09:00:22.457Z,97977.22
2022-08-16T09:02:54.366Z,97975.09
2022-08-16T09:05:35.991Z,97974.88
2022-08-16T09:08:10.591Z,97971.53
2022-08-16T09:10:46.604Z,97972.16
2022-08-16T09:13:26.487Z,97973.03
2022-08-16T09:16:06.479Z,97968.19
2022-08-16T09:18:36.889Z,97970.63
2022-08-16T09:21:13.446Z,97968.81
2022-08-16T09:23:43.346Z,97973.72
2022-08-16T09:26:44.167Z,97972.25
2022-08-16T09:29:16.889Z,97967.38
2022-08-16T09:31:57.478Z,97961.72
2022-08-16T09:34:31.446Z,97957.19
2022-08-16T09:37:00.231Z,97960.28
2022-08-16T09:39:41.550Z,97959.50
2022-08-16T09:42:15.604Z,97964.47
2022-08-16T09:45:13.092Z,97963.72
2022-08-16T09:47:57.292Z,97957.53
2022-08-16T09:50:38.409Z,97955.50
2022-08-16T09:53:15.432Z,97956.09
2022-08-16T09:55:56.782Z,97956.66
2022-08-16T09:58:37.846Z,97954.47
2022-08-16T10:01:15.436Z,97945.03
2022-08-16T10:04:01.785Z,97943.69
2022-08-16T10:06:35.470Z,97937.25
2022-08-16T10:09:16.458Z,97932.94
2022-08-16T10:12:11.790Z,97932.47
2022-08-16T10:14:52.469Z,97933.03
2022-08-16T10:17:21.421Z,97932.53
2022-08-16T10:19:59.465Z,97931.50
2022-08-16T10:22:27.069Z,97922.88
2022-08-16T10:25:00.475Z,97922.34
2022-08-16T10:27:29.702Z,97920.19
2022-08-16T10:30:26.086Z,97928.97
2022-08-16T10:32:55.172Z,97932.84
2022-08-16T10:35:32.595Z,97943.41
2022-08-16T10:37:59.920Z,97932.06
2022-08-16T10:40:33.463Z,97934.53
2022-08-16T10:43:00.518Z,97931.81
2022-08-16T10:45:28.600Z,97927.25
2022-08-16T10:48:27.052Z,97931.88
2022-08-16T10:51:05.501Z,97921.63
2022-08-16T10:53:39.556Z,97921.63
2022-08-16T10:56:52.334Z,97915.13
2022-08-16T11:07:53.469Z,97906.75
2022-08-16T11:17:00.728Z,97918.47
2022-08-16T11:19:12.573Z,97907.06
2022-08-16T11:24:42.135Z,97903.00
2022-08-16T11:27:20.087Z,97901.34
2022-08-16T11:29:55.831Z,97899.69
2022-08-16T11:32:33.751Z,97903.81
2022-08-16T11:35:14.682Z,97894.03
2022-08-16T11:38:47.038Z,97889.09
2022-08-16T11:40:55.499Z,97892.38
2022-08-16T11:43:24.984Z,97889.91
2022-08-16T11:46:01.417Z,97887.44
2022-08-16T11:48:48.446Z,97893.94
2022-08-16T11:51:21.423Z,97887.41
2022-08-16T11:53:54.549Z,97888.75
2022-08-16T11:56:39.486Z,97890.94
2022-08-16T11:59:14.467Z,97883.56
2022-08-16T12:01:55.044Z,97879.72
2022-08-16T12:04:29.600Z,97880.78
2022-08-16T12:07:11.447Z,97884.63
2022-08-16T12:09:43.603Z,97872.13
2022-08-16T12:12:18.515Z,97873.47
2022-08-16T12:14:45.705Z,97871.75
2022-08-16T12:17:19.425Z,97878.00
2022-08-16T12:19:48.819Z,97878.47
2022-08-16T12:22:23.434Z,97877.94
2022-08-16T12:24:52.397Z,97873.59
2022-08-16T12:27:26.595Z,97876.28
2022-08-16T12:29:53.897Z,97876.88
2022-08-16T12:32:37.382Z,97877.31
2022-08-16T12:35:14.434Z,97881.66
2022-08-16T12:37:42.839Z,97877.75
2022-08-16T12:40:24.947Z,97864.09
2022-08-16T12:42:58.715Z,97871.66
2022-08-16T12:45:35.576Z,97866.63
2022-08-16T12:48:35.576Z,97875.84
2022-08-16T12:51:04.564Z,97863.38
2022-08-16T12:53:45.451Z,97864.66
2022-08-16T12:56:13.853Z,97861.63
2022-08-16T12:58:50.447Z,97856.72
2022-08-16T13:01:30.556Z,97856.06
2022-08-16T13:04:12.180Z,97855.97
2022-08-16T13:06:59.462Z,97856.00
2022-08-16T13:09:42.180Z,97858.06
2022-08-16T13:12:19.823Z,97846.75
2022-08-16T13:14:53.430Z,97842.25
2022-08-16T13:17:22.099Z,97844.97
2022-08-16T13:20:07.214Z,97840.25
2022-08-16T13:22:35.883Z,97842.13
2022-08-16T13:25:09.439Z,97845.28
2022-08-16T13:28:02.280Z,97836.19
2022-08-16T13:30:37.759Z,97834.09
2022-08-16T13:33:10.743Z,97842.38
2022-08-16T13:35:55.829Z,97839.59
2022-08-16T13:38:25.039Z,97838.94
2022-08-16T13:41:02.449Z,97841.22
2022-08-16T13:43:32.491Z,97841.19
2022-08-16T13:46:09.498Z,97834.25
2022-08-16T13:48:44.709Z,97824.16
2022-08-16T13:51:16.639Z,97833.88
2022-08-16T13:53:59.777Z,97829.16
2022-08-16T13:56:36.947Z,97825.00
2022-08-16T13:59:14.325Z,97824.13
2022-08-16T14:01:56.460Z,97824.66
2022-08-16T14:04:31.264Z,97821.75
2022-08-16T14:07:12.415Z,97814.13
2022-08-16T14:09:55.360Z,97820.25
2022-08-16T14:12:38.442Z,97815.34
2022-08-16T14:15:06.548Z,97815.69
2022-08-16T14:18:15.275Z,97814.78
2022-08-16T14:20:26.122Z,97810.28
2022-08-16T14:23:00.441Z,97809.72
2022-08-16T14:25:27.154Z,97803.78
2022-08-16T14:28:01.433Z,97808.19
2022-08-16T14:30:34.445Z,97806.03
2022-08-16T14:33:08.419Z,97799.75
2022-08-16T14:35:48.364Z,97795.28
2022-08-16T14:38:24.446Z,97794.81
2022-08-16T14:41:03.427Z,97795.09
2022-08-16T14:43:33.591Z,97786.34
2022-08-16T14:46:07.749Z,97790.84
2022-08-16T14:48:42.439Z,97784.31
2022-08-16T14:51:09.028Z,97790.72
2022-08-16T14:53:45.118Z,97786.97
2022-08-16T14:56:38.438Z,97774.78
2022-08-16T14:59:11.426Z,97775.81
2022-08-16T15:01:58.842Z,97773.34
2022-08-16T15:04:40.248Z,97760.34
2022-08-16T15:07:30.585Z,97769.47
2022-08-16T15:10:12.081Z,97767.72
2022-08-16T15:13:02.426Z,97772.88
2022-08-16T15:15:30.860Z,97762.91
2022-08-16T15:18:05.587Z,97762.78
2022-08-16T15:20:33.734Z,97760.88
2022-08-16T15:23:08.474Z,97766.09
2022-08-16T15:25:41.450Z,97767.88
2022-08-16T15:28:30.982Z,97768.56
2022-08-16T15:31:06.252Z,97769.03
2022-08-16T15:33:48.544Z,97772.81
2022-08-16T15:36:19.270Z,97773.50
2022-08-16T15:39:03.021Z,97766.44
2022-08-16T15:41:35.898Z,97769.13
2022-08-16T15:44:10.522Z,97780.13
2022-08-16T15:46:56.150Z,97775.81
2022-08-16T15:49:38.660Z,97775.66
2022-08-16T15:52:24.927Z,97767.19
2022-08-16T15:55:12.622Z,97771.75
2022-08-16T15:57:46.416Z,97771.69
2022-08-16T16:00:20.438Z,97775.28
2022-08-16T16:02:53.450Z,97770.03
2022-08-16T16:05:20.170Z,97770.19
2022-08-16T16:08:11.756Z,97772.41
2022-08-16T16:10:54.437Z,97769.47
2022-08-16T16:13:31.421Z,97769.47
2022-08-16T16:15:58.965Z,97767.28
2022-08-16T16:18:32.426Z,97769.50
2022-08-16T16:21:07.432Z,97776.63
2022-08-16T16:23:35.895Z,97770.13
2022-08-16T16:26:18.420Z,97761.41
2022-08-16T16:29:08.104Z,97760.28
2022-08-16T16:31:53.045Z,97764.72
2022-08-16T16:34:32.320Z,97762.78
2022-08-16T16:37:10.430Z,97763.16
2022-08-16T16:39:44.533Z,97763.69
2022-08-16T16:42:29.471Z,97758.72
2022-08-16T16:45:14.436Z,97761.97
2022-08-16T16:47:41.977Z,97765.28
2022-08-16T16:50:19.418Z,97768.47
2022-08-16T16:52:53.439Z,97763.00
2022-08-16T16:55:20.594Z,97760.28
2022-08-16T16:58:17.844Z,97765.91
2022-08-16T17:01:03.695Z,97760.59
2022-08-16T17:03:30.402Z,97760.97
2022-08-16T17:06:10.190Z,97755.84
2022-08-16T17:08:54.443Z,97759.41
2022-08-16T17:11:21.140Z,97761.72
2022-08-16T17:13:56.413Z,97755.47
2022-08-16T17:16:32.751Z,97761.88
2022-08-16T17:22:38.484Z,97758.44
2022-08-16T17:25:13.429Z,97765.41
2022-08-16T17:27:40.390Z,97756.50
2022-08-16T17:30:17.475Z,97750.66
2022-08-16T17:32:47.195Z,97763.03
2022-08-16T17:35:22.918Z,97770.56
2022-08-16T17:37:51.469Z,97778.81
2022-08-16T17:40:47.469Z,97773.19
2022-08-16T17:43:20.418Z,97784.69
2022-08-16T17:45:53.417Z,97781.50
2022-08-16T17:48:26.421Z,97774.47
2022-08-16T17:50:54.777Z,97781.88
2022-08-16T17:53:28.433Z,97783.34
2022-08-16T17:56:01.451Z,97780.06
2022-08-16T17:58:35.446Z,97791.00
2022-08-16T18:01:08.455Z,97786.69
2022-08-16T18:04:02.911Z,97787.28
2022-08-16T18:06:36.433Z,97790.28
2022-08-16T18:09:10.618Z,97789.75
2022-08-16T18:11:49.436Z,97788.09
2022-08-16T18:14:18.827Z,97798.19
2022-08-16T18:17:12.453Z,97792.75
2022-08-16T18:19:39.265Z,97797.13
2022-08-16T18:22:30.585Z,97803.06
2022-08-16T18:24:57.897Z,97815.56
2022-08-16T18:27:31.608Z,97811.78
2022-08-16T18:29:58.107Z,97819.34
2022-08-16T18:32:31.432Z,97816.88
2022-08-16T18:34:57.977Z,97819.03
2022-08-16T18:37:31.452Z,97818.75
2022-08-16T18:40:01.772Z,97826.06
2022-08-16T18:42:34.463Z,97826.31
2022-08-16T18:45:02.219Z,97832.81
2022-08-16T18:47:31.852Z,97831.16
2022-08-16T18:50:05.418Z,97835.22
2022-08-16T18:52:38.451Z,97838.41
2022-08-16T18:55:14.320Z,97846.81
2022-08-16T18:57:55.436Z,97850.81
2022-08-16T19:00:24.379Z,97851.63
2022-08-16T19:02:59.229Z,97845.34
2022-08-16T19:05:33.420Z,97855.06
2022-08-16T19:08:07.473Z,97860.22
2022-08-16T19:10:41.426Z,97862.09
2022-08-16T19:13:16.415Z,97852.56
2022-08-16T19:15:50.458Z,97863.94
2022-08-16T19:18:23.434Z,97865.53
2022-08-16T19:20:51.120Z,97868.22
2022-08-16T19:23:22.128Z,97870.88
2022-08-16T19:25:58.428Z,97879.56
2022-08-16T19:28:57.835Z,97881.13
2022-08-16T19:31:37.476Z,97882.75
2022-08-16T19:34:04.482Z,97882.44
2022-08-16T19:36:43.445Z,97886.50
2022-08-16T19:39:13.827Z,97887.25
2022-08-16T19:41:53.977Z,97888.00
2022-08-16T19:44:22.398Z,97894.22
2022-08-16T19:46:55.406Z,97892.81
2022-08-16T19:49:22.015Z,97897.13
2022-08-16T19:51:55.454Z,97895.69
2022-08-16T19:54:22.150Z,97893.69
2022-08-16T19:56:55.429Z,97893.63
2022-08-16T19:59:40.000Z,97897.38
2022-08-16T20:02:32.611Z,97897.91
2022-08-16T20:05:09.408Z,97898.16
2022-08-16T20:07:42.541Z,97898.97
2022-08-16T20:10:16.402Z,97902.75
2022-08-16T20:12:43.059Z,97900.31
2022-08-16T20:15:35.791Z,97894.00
2022-08-16T20:18:04.639Z,97896.16
2022-08-16T20:20:56.415Z,97903.09
2022-08-16T20:23:25.379Z,97904.63
2022-08-16T20:25:59.381Z,97898.91
2022-08-16T20:28:51.884Z,97902.91
2022-08-16T20:31:27.397Z,97902.88
2022-08-16T20:33:54.382Z,97896.03
2022-08-16T20:36:21.113Z,97899.84
2022-08-16T20:38:55.426Z,97900.63
2022-08-16T20:41:21.936Z,97900.28
2022-08-16T20:43:55.415Z,97904.81
2022-08-16T20:46:22.358Z,97909.03
2022-08-16T20:48:55.414Z,97909.75
2022-08-16T20:51:22.054Z,97910.84
2022-08-16T20:53:55.424Z,97908.88
2022-08-16T20:56:21.991Z,97910.75
2022-08-16T20:58:55.397Z,97912.34
2022-08-16T21:01:22.265Z,97913.91
2022-08-16T21:03:55.415Z,97912.19
2022-08-16T21:06:42.413Z,97915.88
2022-08-16T21:09:39.400Z,97901.94
2022-08-16T21:12:17.976Z,97912.66
2022-08-16T21:14:45.055Z,97912.59
2022-08-16T21:17:19.401Z,97917.41
2022-08-16T21:19:46.108Z,97917.94
2022-08-16T21:22:19.391Z,97921.13
2022-08-16T21:24:46.825Z,97923.50
2022-08-16T21:27:20.413Z,97932.34
2022-08-16T21:29:48.941Z,97935.53
2022-08-16T21:32:35.115Z,97935.22
2022-08-16T21:35:10.380Z,97933.25
2022-08-16T21:37:43.397Z,97928.31
2022-08-16T21:40:37.398Z,97930.94
2022-08-16T21:43:13.421Z,97931.44
2022-08-16T21:45:40.973Z,97932.75
2022-08-16T21:48:07.929Z,97940.53
2022-08-16T21:50:42.393Z,97937.25
2022-08-16T21:53:08.951Z,97928.44
2022-08-16T21:55:43.389Z,97936.00
2022-08-16T21:58:10.442Z,97941.28
2022-08-16T22:00:44.396Z,97937.19
2022-08-16T22:03:11.386Z,97941.75
2022-08-16T22:05:46.586Z,97949.75
2022-08-16T22:08:49.885Z,97944.84
2022-08-16T22:11:25.403Z,97939.13
2022-08-16T22:13:58.793Z,97942.53
2022-08-16T22:16:43.389Z,97947.81
2022-08-16T22:19:10.190Z,97946.09
2022-08-16T22:21:43.493Z,97949.03
2022-08-16T22:24:10.430Z,97951.97
2022-08-16T22:26:44.448Z,97954.06
2022-08-16T22:29:13.674Z,97954.06
2022-08-16T22:31:47.434Z,97953.75
2022-08-16T22:34:20.442Z,97963.25
2022-08-16T22:36:53.460Z,97959.97
2022-08-16T22:39:26.501Z,97956.34
2022-08-16T22:41:59.461Z,97960.34
2022-08-16T22:44:32.482Z,97956.72
2022-08-16T22:46:59.201Z,97949.31
2022-08-16T22:49:32.374Z,97951.66
2022-08-16T22:52:06.198Z,97947.56
2022-08-16T22:54:48.611Z,97941.59
2022-08-16T22:57:15.772Z,97943.34
2022-08-16T22:59:48.427Z,97943.84
2022-08-16T23:02:19.539Z,97943.84
2022-08-16T23:04:52.460Z,97956.41
2022-08-16T23:07:25.528Z,97954.88
2022-08-16T23:09:58.468Z,97948.06
2022-08-16T23:12:31.586Z,97952.06
2022-08-16T23:15:02.850Z,97952.06
2022-08-16T23:17:30.753Z,97953.38
2022-08-16T23:20:03.424Z,97948.63
2022-08-16T23:23:20.583Z,97939.94
2022-08-16T23:25:38.413Z,97937.72
2022-08-16T23:28:05.904Z,97939.81
2022-08-16T23:30:40.730Z,97946.88
2022-08-16T23:33:09.901Z,97942.78
2022-08-16T23:35:45.979Z,97942.44
2022-08-16T23:38:38.127Z,97934.78
2022-08-16T23:41:09.171Z,97928.34
2022-08-16T23:43:48.401Z,97927.16
2022-08-16T23:46:17.297Z,97922.84
2022-08-16T23:49:58.038Z,97924.38
2022-08-16T23:51:44.373Z,97925.78
2022-08-16T23:54:18.413Z,97921.91
2022-08-16T23:56:51.384Z,97922.59
2022-08-16T23:59:18.248Z,97926.59
